Grandin, Florida
Current Conditions -  °F | °C
As of 3:35 PM on Thursday 29 Jan 2015 (Local Time) from K42J Reporting Station
Clear Clear  
Wind Chill: 66°   Ceiling: Unl
Heat Index: 66°   Visibility: 9mi
Dew Point: 41°   Wind: 5mph
Humidity: 40%   Direction: 220°SW
Pressure: 30.23"   Gusts: NA
Location:  29.73°N, 81.92°W
Report Text: K42J 292035Z AUTO 22004KT 9SM CLR 19/05 A3023 RMK AO1 TSNO
Loading
Personal Weather Stations






























Interactive Weather Map New forecast layout! Learn more

10-Day Weather Forecast

Advertisements
Track Severe Weather on mobile